sensor_id;sensor_type;location;lat;lon;timestamp;P1;durP1;ratioP1;P2;durP2;ratioP2
76548;SDS011;65391;52.068;4.542;2023-11-19T00:01:57;14.5;;;3.6;;
76548;SDS011;65391;52.068;4.542;2023-11-19T00:04:22;14.5;;;3.6;;
76548;SDS011;65391;52.068;4.542;2023-11-19T00:06:47;14.5;;;3.6;;
76548;SDS011;65391;52.068;4.542;2023-11-19T00:09:12;14.5;;;3.6;;
76548;SDS011;65391;52.068;4.542;2023-11-19T00:11:37;13.1;;;3.7;;
76548;SDS011;65391;52.068;4.542;2023-11-19T00:14:02;13.1;;;3.7;;
76548;SDS011;65391;52.068;4.542;2023-11-19T00:16:27;13.1;;;3.7;;
76548;SDS011;65391;52.068;4.542;2023-11-19T00:18:52;13.1;;;3.7;;
76548;SDS011;65391;52.068;4.542;2023-11-19T00:21:17;14.5;;;4;;
76548;SDS011;65391;52.068;4.542;2023-11-19T00:23:42;14.5;;;4;;
76548;SDS011;65391;52.068;4.542;2023-11-19T00:26:07;14.5;;;4;;
76548;SDS011;65391;52.068;4.542;2023-11-19T00:28:32;14.5;;;4;;
76548;SDS011;65391;52.068;4.542;2023-11-19T00:30:57;12.4;;;3.7;;
76548;SDS011;65391;52.068;4.542;2023-11-19T00:33:22;12.4;;;3.7;;
76548;SDS011;65391;52.068;4.542;2023-11-19T00:35:47;12.4;;;3.7;;
76548;SDS011;65391;52.068;4.542;2023-11-19T00:38:12;12.4;;;3.7;;
76548;SDS011;65391;52.068;4.542;2023-11-19T00:40:37;14.6;;;3.3;;
76548;SDS011;65391;52.068;4.542;2023-11-19T00:43:02;14.6;;;3.3;;
76548;SDS011;65391;52.068;4.542;2023-11-19T00:45:27;14.6;;;3.3;;
76548;SDS011;65391;52.068;4.542;2023-11-19T00:47:52;14.6;;;3.3;;
76548;SDS011;65391;52.068;4.542;2023-11-19T00:50:17;13.1;;;4.3;;
76548;SDS011;65391;52.068;4.542;2023-11-19T00:52:42;13.1;;;4.3;;
76548;SDS011;65391;52.068;4.542;2023-11-19T00:55:07;13.1;;;4.3;;
76548;SDS011;65391;52.068;4.542;2023-11-19T00:57:32;13.1;;;4.3;;
76548;SDS011;65391;52.068;4.542;2023-11-19T00:59:57;13.7;;;3.2;;
76548;SDS011;65391;52.068;4.542;2023-11-19T01:02:22;13.7;;;3.2;;
76548;SDS011;65391;52.068;4.542;2023-11-19T01:04:47;13.7;;;3.2;;
76548;SDS011;65391;52.068;4.542;2023-11-19T01:07:12;13.7;;;3.2;;
76548;SDS011;65391;52.068;4.542;2023-11-19T01:09:37;13.7;;;3.2;;
76548;SDS011;65391;52.068;4.542;2023-11-19T01:12:02;14.7;;;3.8;;
76548;SDS011;65391;52.068;4.542;2023-11-19T01:14:27;14.7;;;3.8;;
76548;SDS011;65391;52.068;4.542;2023-11-19T01:16:55;14.7;;;3.8;;
76548;SDS011;65391;52.068;4.542;2023-11-19T01:19:17;14.7;;;3.8;;
76548;SDS011;65391;52.068;4.542;2023-11-19T01:21:42;16;;;4.6;;
76548;SDS011;65391;52.068;4.542;2023-11-19T01:24:07;16;;;4.6;;
76548;SDS011;65391;52.068;4.542;2023-11-19T01:26:32;16;;;4.6;;
76548;SDS011;65391;52.068;4.542;2023-11-19T01:28:57;16;;;4.6;;
76548;SDS011;65391;52.068;4.542;2023-11-19T01:31:22;14.3;;;2.9;;
76548;SDS011;65391;52.068;4.542;2023-11-19T01:33:47;14.3;;;2.9;;
76548;SDS011;65391;52.068;4.542;2023-11-19T01:36:13;14.3;;;2.9;;
76548;SDS011;65391;52.068;4.542;2023-11-19T01:38:37;14.3;;;2.9;;
76548;SDS011;65391;52.068;4.542;2023-11-19T01:41:03;16.4;;;4.7;;
76548;SDS011;65391;52.068;4.542;2023-11-19T01:43:31;16.4;;;4.7;;
76548;SDS011;65391;52.068;4.542;2023-11-19T01:45:52;16.4;;;4.7;;
76548;SDS011;65391;52.068;4.542;2023-11-19T01:48:17;16.4;;;4.7;;
76548;SDS011;65391;52.068;4.542;2023-11-19T01:50:42;13.3;;;5.1;;
76548;SDS011;65391;52.068;4.542;2023-11-19T01:53:07;13.3;;;5.1;;
76548;SDS011;65391;52.068;4.542;2023-11-19T01:55:32;13.3;;;5.1;;
76548;SDS011;65391;52.068;4.542;2023-11-19T01:57:59;13.3;;;5.1;;
76548;SDS011;65391;52.068;4.542;2023-11-19T02:00:22;13.5;;;5.1;;
76548;SDS011;65391;52.068;4.542;2023-11-19T02:02:47;13.5;;;5.1;;
76548;SDS011;65391;52.068;4.542;2023-11-19T02:05:12;13.5;;;5.1;;
76548;SDS011;65391;52.068;4.542;2023-11-19T02:07:37;13.5;;;5.1;;
76548;SDS011;65391;52.068;4.542;2023-11-19T02:10:03;12.4;;;2.5;;
76548;SDS011;65391;52.068;4.542;2023-11-19T02:12:27;12.4;;;2.5;;
76548;SDS011;65391;52.068;4.542;2023-11-19T02:14:52;12.4;;;2.5;;
76548;SDS011;65391;52.068;4.542;2023-11-19T02:17:27;12.4;;;2.5;;
76548;SDS011;65391;52.068;4.542;2023-11-19T02:19:42;12.4;;;2.5;;
76548;SDS011;65391;52.068;4.542;2023-11-19T02:22:07;13;;;4.9;;
76548;SDS011;65391;52.068;4.542;2023-11-19T02:24:32;13;;;4.9;;
76548;SDS011;65391;52.068;4.542;2023-11-19T02:26:59;13;;;4.9;;
76548;SDS011;65391;52.068;4.542;2023-11-19T02:29:22;13;;;4.9;;
76548;SDS011;65391;52.068;4.542;2023-11-19T02:31:47;14.4;;;5;;
76548;SDS011;65391;52.068;4.542;2023-11-19T02:34:12;14.4;;;5;;
76548;SDS011;65391;52.068;4.542;2023-11-19T02:36:37;14.4;;;5;;
76548;SDS011;65391;52.068;4.542;2023-11-19T02:39:03;14.4;;;5;;
76548;SDS011;65391;52.068;4.542;2023-11-19T02:41:27;15;;;3.3;;
76548;SDS011;65391;52.068;4.542;2023-11-19T02:43:52;15;;;3.3;;
76548;SDS011;65391;52.068;4.542;2023-11-19T02:46:17;15;;;3.3;;
76548;SDS011;65391;52.068;4.542;2023-11-19T02:48:42;15;;;3.3;;
76548;SDS011;65391;52.068;4.542;2023-11-19T02:51:07;13.7;;;5.4;;
76548;SDS011;65391;52.068;4.542;2023-11-19T02:53:32;13.7;;;5.4;;
76548;SDS011;65391;52.068;4.542;2023-11-19T02:55:57;13.7;;;5.4;;
76548;SDS011;65391;52.068;4.542;2023-11-19T02:58:22;13.7;;;5.4;;
76548;SDS011;65391;52.068;4.542;2023-11-19T03:00:47;16.6;;;5;;
76548;SDS011;65391;52.068;4.542;2023-11-19T03:03:12;16.6;;;5;;
76548;SDS011;65391;52.068;4.542;2023-11-19T03:05:37;16.6;;;5;;
76548;SDS011;65391;52.068;4.542;2023-11-19T03:08:02;16.6;;;5;;
76548;SDS011;65391;52.068;4.542;2023-11-19T03:10:28;16.4;;;4.7;;
76548;SDS011;65391;52.068;4.542;2023-11-19T03:12:52;16.4;;;4.7;;
76548;SDS011;65391;52.068;4.542;2023-11-19T03:15:17;16.4;;;4.7;;
76548;SDS011;65391;52.068;4.542;2023-11-19T03:17:43;16.4;;;4.7;;
76548;SDS011;65391;52.068;4.542;2023-11-19T03:20:09;16.6;;;4.8;;
76548;SDS011;65391;52.068;4.542;2023-11-19T03:22:32;16.6;;;4.8;;
76548;SDS011;65391;52.068;4.542;2023-11-19T03:24:57;16.6;;;4.8;;
76548;SDS011;65391;52.068;4.542;2023-11-19T03:27:22;16.6;;;4.8;;
76548;SDS011;65391;52.068;4.542;2023-11-19T03:29:47;16.6;;;4.8;;
76548;SDS011;65391;52.068;4.542;2023-11-19T03:32:12;16.1;;;4.6;;
76548;SDS011;65391;52.068;4.542;2023-11-19T03:34:38;16.1;;;4.6;;
76548;SDS011;65391;52.068;4.542;2023-11-19T03:37:03;16.1;;;4.6;;
76548;SDS011;65391;52.068;4.542;2023-11-19T03:39:28;16.1;;;4.6;;
76548;SDS011;65391;52.068;4.542;2023-11-19T03:41:52;14.7;;;5.1;;
76548;SDS011;65391;52.068;4.542;2023-11-19T03:44:17;14.7;;;5.1;;
76548;SDS011;65391;52.068;4.542;2023-11-19T03:46:42;14.7;;;5.1;;
76548;SDS011;65391;52.068;4.542;2023-11-19T03:49:07;14.7;;;5.1;;
76548;SDS011;65391;52.068;4.542;2023-11-19T03:51:32;18.4;;;5.3;;
76548;SDS011;65391;52.068;4.542;2023-11-19T03:53:57;18.4;;;5.3;;
76548;SDS011;65391;52.068;4.542;2023-11-19T03:56:22;18.4;;;5.3;;
76548;SDS011;65391;52.068;4.542;2023-11-19T03:58:47;18.4;;;5.3;;
76548;SDS011;65391;52.068;4.542;2023-11-19T04:01:12;14.5;;;4.6;;
76548;SDS011;65391;52.068;4.542;2023-11-19T04:03:37;14.5;;;4.6;;
76548;SDS011;65391;52.068;4.542;2023-11-19T04:06:03;14.5;;;4.6;;
76548;SDS011;65391;52.068;4.542;2023-11-19T04:08:27;14.5;;;4.6;;
76548;SDS011;65391;52.068;4.542;2023-11-19T04:10:52;13.4;;;4.9;;
76548;SDS011;65391;52.068;4.542;2023-11-19T04:13:17;13.4;;;4.9;;
76548;SDS011;65391;52.068;4.542;2023-11-19T04:15:42;13.4;;;4.9;;
76548;SDS011;65391;52.068;4.542;2023-11-19T04:18:07;13.4;;;4.9;;
76548;SDS011;65391;52.068;4.542;2023-11-19T04:20:32;16.8;;;5.1;;
76548;SDS011;65391;52.068;4.542;2023-11-19T04:22:57;16.8;;;5.1;;
76548;SDS011;65391;52.068;4.542;2023-11-19T04:25:22;16.8;;;5.1;;
76548;SDS011;65391;52.068;4.542;2023-11-19T04:27:47;16.8;;;5.1;;
76548;SDS011;65391;52.068;4.542;2023-11-19T04:30:13;15.8;;;3.9;;
76548;SDS011;65391;52.068;4.542;2023-11-19T04:32:37;15.8;;;3.9;;
76548;SDS011;65391;52.068;4.542;2023-11-19T04:35:03;15.8;;;3.9;;
76548;SDS011;65391;52.068;4.542;2023-11-19T04:37:27;15.8;;;3.9;;
76548;SDS011;65391;52.068;4.542;2023-11-19T04:39:52;15.8;;;3.9;;
76548;SDS011;65391;52.068;4.542;2023-11-19T04:42:17;17.5;;;5.4;;
76548;SDS011;65391;52.068;4.542;2023-11-19T04:44:42;17.5;;;5.4;;
76548;SDS011;65391;52.068;4.542;2023-11-19T04:47:07;17.5;;;5.4;;
76548;SDS011;65391;52.068;4.542;2023-11-19T04:49:32;17.5;;;5.4;;
76548;SDS011;65391;52.068;4.542;2023-11-19T04:51:57;15.7;;;5.7;;
76548;SDS011;65391;52.068;4.542;2023-11-19T04:54:22;15.7;;;5.7;;
76548;SDS011;65391;52.068;4.542;2023-11-19T04:56:47;15.7;;;5.7;;
76548;SDS011;65391;52.068;4.542;2023-11-19T04:59:12;15.7;;;5.7;;
76548;SDS011;65391;52.068;4.542;2023-11-19T05:01:37;13.6;;;5.5;;
76548;SDS011;65391;52.068;4.542;2023-11-19T05:04:02;13.6;;;5.5;;
76548;SDS011;65391;52.068;4.542;2023-11-19T05:06:27;13.6;;;5.5;;
76548;SDS011;65391;52.068;4.542;2023-11-19T05:08:52;13.6;;;5.5;;
76548;SDS011;65391;52.068;4.542;2023-11-19T05:11:17;18.1;;;5.9;;
76548;SDS011;65391;52.068;4.542;2023-11-19T05:13:42;18.1;;;5.9;;
76548;SDS011;65391;52.068;4.542;2023-11-19T05:16:07;18.1;;;5.9;;
76548;SDS011;65391;52.068;4.542;2023-11-19T05:18:32;18.1;;;5.9;;
76548;SDS011;65391;52.068;4.542;2023-11-19T05:20:57;16.5;;;4.4;;
76548;SDS011;65391;52.068;4.542;2023-11-19T05:23:22;16.5;;;4.4;;
76548;SDS011;65391;52.068;4.542;2023-11-19T05:25:47;16.5;;;4.4;;
76548;SDS011;65391;52.068;4.542;2023-11-19T05:28:12;16.5;;;4.4;;
76548;SDS011;65391;52.068;4.542;2023-11-19T05:30:37;16.3;;;4.2;;
76548;SDS011;65391;52.068;4.542;2023-11-19T05:33:02;16.3;;;4.2;;
76548;SDS011;65391;52.068;4.542;2023-11-19T05:35:27;16.3;;;4.2;;
76548;SDS011;65391;52.068;4.542;2023-11-19T05:37:52;16.3;;;4.2;;
76548;SDS011;65391;52.068;4.542;2023-11-19T05:40:17;14.7;;;6.2;;
76548;SDS011;65391;52.068;4.542;2023-11-19T05:42:42;14.7;;;6.2;;
76548;SDS011;65391;52.068;4.542;2023-11-19T05:45:08;14.7;;;6.2;;
76548;SDS011;65391;52.068;4.542;2023-11-19T05:47:32;14.7;;;6.2;;
76548;SDS011;65391;52.068;4.542;2023-11-19T05:49:57;14.7;;;6.2;;
76548;SDS011;65391;52.068;4.542;2023-11-19T05:52:22;18.4;;;4.9;;
76548;SDS011;65391;52.068;4.542;2023-11-19T05:54:47;18.4;;;4.9;;
76548;SDS011;65391;52.068;4.542;2023-11-19T05:57:12;18.4;;;4.9;;
76548;SDS011;65391;52.068;4.542;2023-11-19T05:59:37;18.4;;;4.9;;
76548;SDS011;65391;52.068;4.542;2023-11-19T06:02:02;17;;;4.4;;
76548;SDS011;65391;52.068;4.542;2023-11-19T06:04:27;17;;;4.4;;
76548;SDS011;65391;52.068;4.542;2023-11-19T06:06:52;17;;;4.4;;
76548;SDS011;65391;52.068;4.542;2023-11-19T06:09:17;17;;;4.4;;
76548;SDS011;65391;52.068;4.542;2023-11-19T06:11:43;14.8;;;7.3;;
76548;SDS011;65391;52.068;4.542;2023-11-19T06:14:07;14.8;;;7.3;;
76548;SDS011;65391;52.068;4.542;2023-11-19T06:16:32;14.8;;;7.3;;
76548;SDS011;65391;52.068;4.542;2023-11-19T06:18:57;14.8;;;7.3;;
76548;SDS011;65391;52.068;4.542;2023-11-19T06:21:22;16.8;;;4.2;;
76548;SDS011;65391;52.068;4.542;2023-11-19T06:23:47;16.8;;;4.2;;
76548;SDS011;65391;52.068;4.542;2023-11-19T06:26:12;16.8;;;4.2;;
76548;SDS011;65391;52.068;4.542;2023-11-19T06:28:37;16.8;;;4.2;;
76548;SDS011;65391;52.068;4.542;2023-11-19T06:31:03;16.6;;;5.5;;
76548;SDS011;65391;52.068;4.542;2023-11-19T06:33:27;16.6;;;5.5;;
76548;SDS011;65391;52.068;4.542;2023-11-19T06:35:52;16.6;;;5.5;;
76548;SDS011;65391;52.068;4.542;2023-11-19T06:38:17;16.6;;;5.5;;
76548;SDS011;65391;52.068;4.542;2023-11-19T06:40:42;16.5;;;4.6;;
76548;SDS011;65391;52.068;4.542;2023-11-19T06:43:07;16.5;;;4.6;;
76548;SDS011;65391;52.068;4.542;2023-11-19T06:45:32;16.5;;;4.6;;
76548;SDS011;65391;52.068;4.542;2023-11-19T06:47:57;16.5;;;4.6;;
76548;SDS011;65391;52.068;4.542;2023-11-19T06:50:22;16.4;;;5.9;;
76548;SDS011;65391;52.068;4.542;2023-11-19T06:52:47;16.4;;;5.9;;
76548;SDS011;65391;52.068;4.542;2023-11-19T06:55:13;16.4;;;5.9;;
76548;SDS011;65391;52.068;4.542;2023-11-19T06:57:37;16.4;;;5.9;;
76548;SDS011;65391;52.068;4.542;2023-11-19T07:00:03;16.4;;;5.9;;
76548;SDS011;65391;52.068;4.542;2023-11-19T07:02:27;16.3;;;3.4;;
76548;SDS011;65391;52.068;4.542;2023-11-19T07:04:52;16.3;;;3.4;;
76548;SDS011;65391;52.068;4.542;2023-11-19T07:07:17;16.3;;;3.4;;
76548;SDS011;65391;52.068;4.542;2023-11-19T07:09:42;16.3;;;3.4;;
76548;SDS011;65391;52.068;4.542;2023-11-19T07:12:08;17.1;;;4.6;;
76548;SDS011;65391;52.068;4.542;2023-11-19T07:14:32;17.1;;;4.6;;
76548;SDS011;65391;52.068;4.542;2023-11-19T07:16:57;17.1;;;4.6;;
76548;SDS011;65391;52.068;4.542;2023-11-19T07:19:22;17.1;;;4.6;;
76548;SDS011;65391;52.068;4.542;2023-11-19T07:21:47;16.1;;;4.1;;
76548;SDS011;65391;52.068;4.542;2023-11-19T07:24:12;16.1;;;4.1;;
76548;SDS011;65391;52.068;4.542;2023-11-19T07:26:40;16.1;;;4.1;;
76548;SDS011;65391;52.068;4.542;2023-11-19T07:29:03;16.1;;;4.1;;
76548;SDS011;65391;52.068;4.542;2023-11-19T07:31:27;16.8;;;4.2;;
76548;SDS011;65391;52.068;4.542;2023-11-19T07:33:52;16.8;;;4.2;;
76548;SDS011;65391;52.068;4.542;2023-11-19T07:36:17;16.8;;;4.2;;
76548;SDS011;65391;52.068;4.542;2023-11-19T07:38:42;16.8;;;4.2;;
76548;SDS011;65391;52.068;4.542;2023-11-19T07:41:08;16.7;;;7.4;;
76548;SDS011;65391;52.068;4.542;2023-11-19T07:43:32;16.7;;;7.4;;
76548;SDS011;65391;52.068;4.542;2023-11-19T07:45:57;16.7;;;7.4;;
76548;SDS011;65391;52.068;4.542;2023-11-19T07:48:22;16.7;;;7.4;;
76548;SDS011;65391;52.068;4.542;2023-11-19T07:50:48;16;;;5;;
76548;SDS011;65391;52.068;4.542;2023-11-19T07:53:12;16;;;5;;
76548;SDS011;65391;52.068;4.542;2023-11-19T07:55:37;16;;;5;;
76548;SDS011;65391;52.068;4.542;2023-11-19T07:58:02;16;;;5;;
76548;SDS011;65391;52.068;4.542;2023-11-19T08:00:27;18.4;;;6.2;;
76548;SDS011;65391;52.068;4.542;2023-11-19T08:02:52;18.4;;;6.2;;
76548;SDS011;65391;52.068;4.542;2023-11-19T08:05:17;18.4;;;6.2;;
76548;SDS011;65391;52.068;4.542;2023-11-19T08:07:42;18.4;;;6.2;;
76548;SDS011;65391;52.068;4.542;2023-11-19T08:10:08;18.4;;;6.2;;
76548;SDS011;65391;52.068;4.542;2023-11-19T08:12:32;16;;;5.3;;
76548;SDS011;65391;52.068;4.542;2023-11-19T08:14:57;16;;;5.3;;
76548;SDS011;65391;52.068;4.542;2023-11-19T08:17:23;16;;;5.3;;
76548;SDS011;65391;52.068;4.542;2023-11-19T08:19:47;16;;;5.3;;
76548;SDS011;65391;52.068;4.542;2023-11-19T08:22:13;14.8;;;5.6;;
76548;SDS011;65391;52.068;4.542;2023-11-19T08:24:38;14.8;;;5.6;;
76548;SDS011;65391;52.068;4.542;2023-11-19T08:27:03;14.8;;;5.6;;
76548;SDS011;65391;52.068;4.542;2023-11-19T08:29:28;14.8;;;5.6;;
76548;SDS011;65391;52.068;4.542;2023-11-19T08:31:53;13.7;;;3.6;;
76548;SDS011;65391;52.068;4.542;2023-11-19T08:34:17;13.7;;;3.6;;
76548;SDS011;65391;52.068;4.542;2023-11-19T08:36:42;13.7;;;3.6;;
76548;SDS011;65391;52.068;4.542;2023-11-19T08:39:08;13.7;;;3.6;;
76548;SDS011;65391;52.068;4.542;2023-11-19T08:41:33;17.6;;;4.7;;
76548;SDS011;65391;52.068;4.542;2023-11-19T08:43:57;17.6;;;4.7;;
76548;SDS011;65391;52.068;4.542;2023-11-19T08:46:22;17.6;;;4.7;;
76548;SDS011;65391;52.068;4.542;2023-11-19T08:48:47;17.6;;;4.7;;
76548;SDS011;65391;52.068;4.542;2023-11-19T08:51:13;15.1;;;6.8;;
76548;SDS011;65391;52.068;4.542;2023-11-19T08:53:38;15.1;;;6.8;;
76548;SDS011;65391;52.068;4.542;2023-11-19T08:56:03;15.1;;;6.8;;
76548;SDS011;65391;52.068;4.542;2023-11-19T08:58:28;15.1;;;6.8;;
76548;SDS011;65391;52.068;4.542;2023-11-19T09:00:53;17.3;;;4.4;;
76548;SDS011;65391;52.068;4.542;2023-11-19T09:03:18;17.3;;;4.4;;
76548;SDS011;65391;52.068;4.542;2023-11-19T09:05:43;17.3;;;4.4;;
76548;SDS011;65391;52.068;4.542;2023-11-19T09:08:08;17.3;;;4.4;;
76548;SDS011;65391;52.068;4.542;2023-11-19T09:10:33;16.6;;;3.8;;
76548;SDS011;65391;52.068;4.542;2023-11-19T09:12:58;16.6;;;3.8;;
76548;SDS011;65391;52.068;4.542;2023-11-19T09:15:23;16.6;;;3.8;;
76548;SDS011;65391;52.068;4.542;2023-11-19T09:17:48;16.6;;;3.8;;
76548;SDS011;65391;52.068;4.542;2023-11-19T09:20:13;16.6;;;3.8;;
76548;SDS011;65391;52.068;4.542;2023-11-19T09:22:38;15.3;;;4.8;;
76548;SDS011;65391;52.068;4.542;2023-11-19T09:25:03;15.3;;;4.8;;
76548;SDS011;65391;52.068;4.542;2023-11-19T09:27:28;15.3;;;4.8;;
76548;SDS011;65391;52.068;4.542;2023-11-19T09:29:53;15.3;;;4.8;;
76548;SDS011;65391;52.068;4.542;2023-11-19T09:32:18;16.2;;;5.6;;
76548;SDS011;65391;52.068;4.542;2023-11-19T09:34:43;16.2;;;5.6;;
76548;SDS011;65391;52.068;4.542;2023-11-19T09:37:08;16.2;;;5.6;;
76548;SDS011;65391;52.068;4.542;2023-11-19T09:39:33;16.2;;;5.6;;
76548;SDS011;65391;52.068;4.542;2023-11-19T09:41:58;15;;;5.2;;
76548;SDS011;65391;52.068;4.542;2023-11-19T09:44:23;15;;;5.2;;
76548;SDS011;65391;52.068;4.542;2023-11-19T09:46:48;15;;;5.2;;
76548;SDS011;65391;52.068;4.542;2023-11-19T09:49:13;15;;;5.2;;
76548;SDS011;65391;52.068;4.542;2023-11-19T09:51:38;17;;;4;;
76548;SDS011;65391;52.068;4.542;2023-11-19T09:54:03;17;;;4;;
76548;SDS011;65391;52.068;4.542;2023-11-19T09:56:28;17;;;4;;
76548;SDS011;65391;52.068;4.542;2023-11-19T09:58:53;17;;;4;;
76548;SDS011;65391;52.068;4.542;2023-11-19T10:01:18;18.6;;;5.2;;
76548;SDS011;65391;52.068;4.542;2023-11-19T10:03:43;18.6;;;5.2;;
76548;SDS011;65391;52.068;4.542;2023-11-19T10:06:08;18.6;;;5.2;;
76548;SDS011;65391;52.068;4.542;2023-11-19T10:08:33;18.6;;;5.2;;
76548;SDS011;65391;52.068;4.542;2023-11-19T10:10:58;17.2;;;3.3;;
76548;SDS011;65391;52.068;4.542;2023-11-19T10:13:26;17.2;;;3.3;;
76548;SDS011;65391;52.068;4.542;2023-11-19T10:15:48;17.2;;;3.3;;
76548;SDS011;65391;52.068;4.542;2023-11-19T10:18:14;17.2;;;3.3;;
76548;SDS011;65391;52.068;4.542;2023-11-19T10:20:40;16.5;;;3.8;;
76548;SDS011;65391;52.068;4.542;2023-11-19T10:23:03;16.5;;;3.8;;
76548;SDS011;65391;52.068;4.542;2023-11-19T10:25:28;16.5;;;3.8;;
76548;SDS011;65391;52.068;4.542;2023-11-19T10:27:53;16.5;;;3.8;;
76548;SDS011;65391;52.068;4.542;2023-11-19T10:30:18;16.5;;;3.8;;
76548;SDS011;65391;52.068;4.542;2023-11-19T10:32:43;18;;;4.2;;
76548;SDS011;65391;52.068;4.542;2023-11-19T10:35:08;18;;;4.2;;
76548;SDS011;65391;52.068;4.542;2023-11-19T10:37:33;18;;;4.2;;
76548;SDS011;65391;52.068;4.542;2023-11-19T10:39:58;18;;;4.2;;
76548;SDS011;65391;52.068;4.542;2023-11-19T10:42:23;13.8;;;4.4;;
76548;SDS011;65391;52.068;4.542;2023-11-19T10:44:48;13.8;;;4.4;;
76548;SDS011;65391;52.068;4.542;2023-11-19T10:47:13;13.8;;;4.4;;
76548;SDS011;65391;52.068;4.542;2023-11-19T10:49:38;13.8;;;4.4;;
76548;SDS011;65391;52.068;4.542;2023-11-19T10:52:03;19.2;;;5.4;;
76548;SDS011;65391;52.068;4.542;2023-11-19T10:54:28;19.2;;;5.4;;
76548;SDS011;65391;52.068;4.542;2023-11-19T10:56:54;19.2;;;5.4;;
76548;SDS011;65391;52.068;4.542;2023-11-19T10:59:18;19.2;;;5.4;;
76548;SDS011;65391;52.068;4.542;2023-11-19T11:01:45;18.6;;;4.5;;
76548;SDS011;65391;52.068;4.542;2023-11-19T11:04:10;18.6;;;4.5;;
76548;SDS011;65391;52.068;4.542;2023-11-19T11:06:33;18.6;;;4.5;;
76548;SDS011;65391;52.068;4.542;2023-11-19T11:08:58;18.6;;;4.5;;
76548;SDS011;65391;52.068;4.542;2023-11-19T11:11:23;18.7;;;4.4;;
76548;SDS011;65391;52.068;4.542;2023-11-19T11:13:48;18.7;;;4.4;;
76548;SDS011;65391;52.068;4.542;2023-11-19T11:16:13;18.7;;;4.4;;
76548;SDS011;65391;52.068;4.542;2023-11-19T11:18:38;18.7;;;4.4;;
76548;SDS011;65391;52.068;4.542;2023-11-19T11:21:05;19.2;;;5.7;;
76548;SDS011;65391;52.068;4.542;2023-11-19T11:23:38;19.2;;;5.7;;
76548;SDS011;65391;52.068;4.542;2023-11-19T11:25:59;19.2;;;5.7;;
76548;SDS011;65391;52.068;4.542;2023-11-19T11:28:24;19.2;;;5.7;;
76548;SDS011;65391;52.068;4.542;2023-11-19T11:30:49;17.9;;;3.8;;
76548;SDS011;65391;52.068;4.542;2023-11-19T11:33:17;17.9;;;3.8;;
76548;SDS011;65391;52.068;4.542;2023-11-19T11:35:37;17.9;;;3.8;;
76548;SDS011;65391;52.068;4.542;2023-11-19T11:38:00;17.9;;;3.8;;
76548;SDS011;65391;52.068;4.542;2023-11-19T11:40:23;17.9;;;3.8;;
76548;SDS011;65391;52.068;4.542;2023-11-19T11:42:48;14.6;;;5.6;;
76548;SDS011;65391;52.068;4.542;2023-11-19T11:45:13;14.6;;;5.6;;
76548;SDS011;65391;52.068;4.542;2023-11-19T11:48:11;14.6;;;5.6;;
76548;SDS011;65391;52.068;4.542;2023-11-19T11:50:05;14.6;;;5.6;;
76548;SDS011;65391;52.068;4.542;2023-11-19T11:52:28;16.5;;;3.5;;
76548;SDS011;65391;52.068;4.542;2023-11-19T11:54:53;16.5;;;3.5;;
76548;SDS011;65391;52.068;4.542;2023-11-19T11:57:18;16.5;;;3.5;;
76548;SDS011;65391;52.068;4.542;2023-11-19T11:59:46;16.5;;;3.5;;
76548;SDS011;65391;52.068;4.542;2023-11-19T12:02:09;17.9;;;3.7;;
76548;SDS011;65391;52.068;4.542;2023-11-19T12:04:33;17.9;;;3.7;;
76548;SDS011;65391;52.068;4.542;2023-11-19T12:07:05;17.9;;;3.7;;
76548;SDS011;65391;52.068;4.542;2023-11-19T12:09:23;17.9;;;3.7;;
76548;SDS011;65391;52.068;4.542;2023-11-19T12:11:48;12.4;;;2.8;;
76548;SDS011;65391;52.068;4.542;2023-11-19T12:14:13;12.4;;;2.8;;
76548;SDS011;65391;52.068;4.542;2023-11-19T12:16:38;12.4;;;2.8;;
76548;SDS011;65391;52.068;4.542;2023-11-19T12:19:03;12.4;;;2.8;;
76548;SDS011;65391;52.068;4.542;2023-11-19T12:21:28;17.4;;;3.7;;
76548;SDS011;65391;52.068;4.542;2023-11-19T12:23:53;17.4;;;3.7;;
76548;SDS011;65391;52.068;4.542;2023-11-19T12:26:30;17.4;;;3.7;;
76548;SDS011;65391;52.068;4.542;2023-11-19T12:28:43;17.4;;;3.7;;
76548;SDS011;65391;52.068;4.542;2023-11-19T12:31:08;18.6;;;4.9;;
76548;SDS011;65391;52.068;4.542;2023-11-19T12:33:33;18.6;;;4.9;;
76548;SDS011;65391;52.068;4.542;2023-11-19T12:35:58;18.6;;;4.9;;
76548;SDS011;65391;52.068;4.542;2023-11-19T12:38:23;18.6;;;4.9;;
76548;SDS011;65391;52.068;4.542;2023-11-19T12:41:02;18.6;;;4.9;;
76548;SDS011;65391;52.068;4.542;2023-11-19T12:43:21;18.3;;;4.7;;
76548;SDS011;65391;52.068;4.542;2023-11-19T12:45:38;18.3;;;4.7;;
76548;SDS011;65391;52.068;4.542;2023-11-19T12:48:04;18.3;;;4.7;;
76548;SDS011;65391;52.068;4.542;2023-11-19T12:50:28;18.3;;;4.7;;
76548;SDS011;65391;52.068;4.542;2023-11-19T12:52:56;17.5;;;4.5;;
76548;SDS011;65391;52.068;4.542;2023-11-19T12:55:26;17.5;;;4.5;;
76548;SDS011;65391;52.068;4.542;2023-11-19T12:57:43;17.5;;;4.5;;
76548;SDS011;65391;52.068;4.542;2023-11-19T13:00:18;17.5;;;4.5;;
76548;SDS011;65391;52.068;4.542;2023-11-19T13:02:49;17.9;;;4.4;;
76548;SDS011;65391;52.068;4.542;2023-11-19T13:04:58;17.9;;;4.4;;
76548;SDS011;65391;52.068;4.542;2023-11-19T13:07:23;17.9;;;4.4;;
76548;SDS011;65391;52.068;4.542;2023-11-19T13:09:48;17.9;;;4.4;;
76548;SDS011;65391;52.068;4.542;2023-11-19T13:12:13;17.8;;;4.1;;
76548;SDS011;65391;52.068;4.542;2023-11-19T13:14:38;17.8;;;4.1;;
76548;SDS011;65391;52.068;4.542;2023-11-19T13:17:03;17.8;;;4.1;;
76548;SDS011;65391;52.068;4.542;2023-11-19T13:19:28;17.8;;;4.1;;
76548;SDS011;65391;52.068;4.542;2023-11-19T13:21:53;18.1;;;4.4;;
76548;SDS011;65391;52.068;4.542;2023-11-19T13:24:18;18.1;;;4.4;;
76548;SDS011;65391;52.068;4.542;2023-11-19T13:26:43;18.1;;;4.4;;
76548;SDS011;65391;52.068;4.542;2023-11-19T13:29:08;18.1;;;4.4;;
76548;SDS011;65391;52.068;4.542;2023-11-19T13:31:33;16.9;;;8.3;;
76548;SDS011;65391;52.068;4.542;2023-11-19T13:33:58;16.9;;;8.3;;
76548;SDS011;65391;52.068;4.542;2023-11-19T13:38:03;16.9;;;8.3;;
76548;SDS011;65391;52.068;4.542;2023-11-19T13:40:28;16.9;;;8.3;;
76548;SDS011;65391;52.068;4.542;2023-11-19T13:42:53;14.5;;;5.1;;
76548;SDS011;65391;52.068;4.542;2023-11-19T13:47:43;14.5;;;5.1;;
76548;SDS011;65391;52.068;4.542;2023-11-19T13:50:08;14.5;;;5.1;;
76548;SDS011;65391;52.068;4.542;2023-11-19T13:52:32;14.5;;;5.1;;
76548;SDS011;65391;52.068;4.542;2023-11-19T13:54:57;18.1;;;5.1;;
76548;SDS011;65391;52.068;4.542;2023-11-19T13:58:12;18.1;;;5.1;;
76548;SDS011;65391;52.068;4.542;2023-11-19T14:00:37;18.1;;;5.1;;
76548;SDS011;65391;52.068;4.542;2023-11-19T14:03:02;18.1;;;5.1;;
76548;SDS011;65391;52.068;4.542;2023-11-19T14:05:27;17.7;;;4.6;;
76548;SDS011;65391;52.068;4.542;2023-11-19T14:07:52;17.7;;;4.6;;
76548;SDS011;65391;52.068;4.542;2023-11-19T14:10:17;17.7;;;4.6;;
76548;SDS011;65391;52.068;4.542;2023-11-19T14:12:42;17.7;;;4.6;;
76548;SDS011;65391;52.068;4.542;2023-11-19T14:15:08;17.5;;;4.5;;
76548;SDS011;65391;52.068;4.542;2023-11-19T14:17:32;17.5;;;4.5;;
76548;SDS011;65391;52.068;4.542;2023-11-19T14:19:57;17.5;;;4.5;;
76548;SDS011;65391;52.068;4.542;2023-11-19T14:22:22;17.5;;;4.5;;
76548;SDS011;65391;52.068;4.542;2023-11-19T14:24:47;16.7;;;6.8;;
76548;SDS011;65391;52.068;4.542;2023-11-19T14:27:12;16.7;;;6.8;;
76548;SDS011;65391;52.068;4.542;2023-11-19T14:29:37;16.7;;;6.8;;
76548;SDS011;65391;52.068;4.542;2023-11-19T14:32:02;16.7;;;6.8;;
76548;SDS011;65391;52.068;4.542;2023-11-19T14:34:27;17.8;;;4.6;;
76548;SDS011;65391;52.068;4.542;2023-11-19T14:36:52;17.8;;;4.6;;
76548;SDS011;65391;52.068;4.542;2023-11-19T14:39:17;17.8;;;4.6;;
76548;SDS011;65391;52.068;4.542;2023-11-19T14:41:42;17.8;;;4.6;;
76548;SDS011;65391;52.068;4.542;2023-11-19T14:44:07;18.3;;;5.1;;
76548;SDS011;65391;52.068;4.542;2023-11-19T14:46:32;18.3;;;5.1;;
76548;SDS011;65391;52.068;4.542;2023-11-19T14:48:57;18.3;;;5.1;;
76548;SDS011;65391;52.068;4.542;2023-11-19T14:51:22;18.3;;;5.1;;
76548;SDS011;65391;52.068;4.542;2023-11-19T14:55:52;17.6;;;4;;
76548;SDS011;65391;52.068;4.542;2023-11-19T14:58:17;17.6;;;4;;